createdAt,value
2023-07-16T00:04:47.061Z,2.17
2023-07-16T00:09:48.686Z,2.30
2023-07-16T00:14:50.391Z,2.13
2023-07-16T00:19:51.933Z,2.33
2023-07-16T00:24:53.393Z,1.65
2023-07-16T00:29:55.075Z,1.85
2023-07-16T00:34:56.544Z,2.63
2023-07-16T00:39:58.036Z,2.40
2023-07-16T00:44:59.665Z,1.80
2023-07-16T00:50:01.176Z,1.98
2023-07-16T00:55:03.451Z,1.90
2023-07-16T01:00:05.448Z,2.10
2023-07-16T01:05:07.223Z,2.20
2023-07-16T01:10:09.508Z,2.20
2023-07-16T01:15:11.606Z,2.10
2023-07-16T01:20:13.454Z,1.98
2023-07-16T01:25:33.354Z,1.67
2023-07-16T01:30:39.107Z,1.60
2023-07-16T01:35:41.848Z,2.20
2023-07-16T01:40:43.458Z,2.13
2023-07-16T01:45:45.779Z,1.83
2023-07-16T01:50:47.285Z,2.00
2023-07-16T01:55:48.977Z,1.70
2023-07-16T02:00:53.351Z,2.13
2023-07-16T02:05:54.880Z,2.00
2023-07-16T02:10:56.390Z,2.35
2023-07-16T02:15:58.028Z,2.53
2023-07-16T02:20:59.747Z,1.80
2023-07-16T02:26:02.109Z,2.15
2023-07-16T02:31:04.230Z,1.85
2023-07-16T02:36:06.005Z,1.80
2023-07-16T02:41:07.442Z,2.03
2023-07-16T02:46:08.939Z,1.70
2023-07-16T02:51:10.560Z,1.73
2023-07-16T02:56:12.585Z,2.05
2023-07-16T03:01:15.274Z,1.85
2023-07-16T03:06:19.330Z,1.70
2023-07-16T03:11:22.927Z,2.40
2023-07-16T03:16:24.677Z,1.90
2023-07-16T03:21:26.698Z,1.98
2023-07-16T03:26:28.308Z,1.70
2023-07-16T03:31:29.912Z,1.90
2023-07-16T03:36:32.000Z,2.10
2023-07-16T03:41:33.451Z,1.90
2023-07-16T03:46:35.020Z,2.22
2023-07-16T03:51:36.669Z,1.88
2023-07-16T03:56:38.414Z,2.17
2023-07-16T04:01:40.221Z,1.67
2023-07-16T04:06:41.848Z,2.05
2023-07-16T04:11:43.283Z,2.15
2023-07-16T04:16:44.810Z,2.28
2023-07-16T04:21:46.278Z,2.10
2023-07-16T04:26:47.709Z,3.00
2023-07-16T04:31:49.316Z,2.60
2023-07-16T04:36:50.838Z,1.98
2023-07-16T04:41:52.243Z,2.40
2023-07-16T04:46:53.778Z,2.90
2023-07-16T04:51:55.438Z,2.88
2023-07-16T04:56:56.857Z,1.85
2023-07-16T05:01:58.711Z,2.30
2023-07-16T05:07:00.247Z,2.67
2023-07-16T05:12:01.663Z,2.60
2023-07-16T05:17:03.336Z,2.72
2023-07-16T05:22:05.268Z,3.38
2023-07-16T05:27:06.858Z,3.25
2023-07-16T05:32:09.052Z,2.65
2023-07-16T05:37:10.606Z,3.38
2023-07-16T05:42:12.073Z,2.60
2023-07-16T05:47:13.517Z,3.10
2023-07-16T05:52:15.080Z,3.05
2023-07-16T05:57:16.490Z,2.63
2023-07-16T06:02:18.047Z,2.90
2023-07-16T06:07:19.760Z,3.30
2023-07-16T06:12:21.179Z,2.97
2023-07-16T06:17:24.823Z,4.20
2023-07-16T06:22:26.742Z,3.60
2023-07-16T06:27:28.923Z,4.03
2023-07-16T06:32:30.379Z,3.90
2023-07-16T06:37:32.134Z,4.38
2023-07-16T06:42:33.685Z,3.78
2023-07-16T06:47:35.186Z,3.38
2023-07-16T06:52:36.937Z,3.47
2023-07-16T06:57:38.568Z,3.55
2023-07-16T07:02:40.196Z,3.17
2023-07-16T07:07:41.769Z,4.03
2023-07-16T07:12:43.273Z,3.42
2023-07-16T07:17:47.349Z,3.63
2023-07-16T07:22:49.078Z,3.50
2023-07-16T07:27:50.744Z,3.53
2023-07-16T07:32:52.215Z,3.40
2023-07-16T07:37:54.078Z,3.83
2023-07-16T07:42:55.468Z,3.53
2023-07-16T07:47:57.164Z,3.92
2023-07-16T07:52:58.644Z,3.50
2023-07-16T07:58:00.747Z,4.07
2023-07-16T08:03:02.312Z,3.28
2023-07-16T08:08:06.435Z,3.78
2023-07-16T08:13:08.346Z,3.45
2023-07-16T08:18:10.829Z,3.20
2023-07-16T08:23:13.170Z,3.63
2023-07-16T08:28:14.692Z,3.78
2023-07-16T08:33:16.339Z,3.65
2023-07-16T08:38:17.988Z,3.60
2023-07-16T08:43:21.429Z,3.50
2023-07-16T08:48:23.592Z,3.35
2023-07-16T08:53:25.082Z,3.28
2023-07-16T08:58:26.604Z,3.42
2023-07-16T09:03:28.755Z,3.47
2023-07-16T09:08:30.257Z,3.17
2023-07-16T09:13:31.872Z,3.20
2023-07-16T09:18:34.024Z,3.13
2023-07-16T09:23:36.000Z,2.90
2023-07-16T09:28:37.744Z,3.67
2023-07-16T09:33:39.549Z,2.88
2023-07-16T09:38:45.636Z,2.88
2023-07-16T09:43:47.476Z,2.95
2023-07-16T09:48:49.153Z,2.60
2023-07-16T09:53:51.978Z,2.88
2023-07-16T09:58:54.846Z,3.17
2023-07-16T10:03:57.699Z,3.05
2023-07-16T10:08:59.403Z,3.03
2023-07-16T10:14:04.922Z,3.40
2023-07-16T10:19:06.486Z,2.70
2023-07-16T10:24:17.979Z,2.92
2023-07-16T10:29:19.465Z,2.60
2023-07-16T10:34:24.007Z,2.42
2023-07-16T10:39:25.502Z,2.80
2023-07-16T10:44:28.587Z,2.70
2023-07-16T10:49:30.340Z,2.72
2023-07-16T10:54:32.027Z,3.42
2023-07-16T10:59:36.890Z,2.83
2023-07-16T11:04:38.751Z,2.63
2023-07-16T11:10:06.911Z,2.63
2023-07-16T11:15:11.931Z,3.00
2023-07-16T11:20:13.802Z,2.85
2023-07-16T11:25:15.773Z,3.00
2023-07-16T11:30:24.386Z,3.03
2023-07-16T11:40:28.399Z,3.00
2023-07-16T11:45:29.882Z,2.65
2023-07-16T11:50:32.654Z,3.47
2023-07-16T11:55:35.031Z,3.30
2023-07-16T12:00:36.823Z,2.42
2023-07-16T12:05:51.669Z,3.45
2023-07-16T12:10:55.032Z,3.20
2023-07-16T12:15:56.577Z,2.67
2023-07-16T12:20:58.084Z,3.47
2023-07-16T12:25:59.724Z,2.72
2023-07-16T12:31:01.242Z,2.78
2023-07-16T12:36:02.723Z,2.70
2023-07-16T12:41:04.365Z,2.95
2023-07-16T12:46:08.383Z,3.03
2023-07-16T12:51:09.957Z,3.13
2023-07-16T12:56:11.483Z,3.03
2023-07-16T13:01:13.103Z,2.95
2023-07-16T13:06:14.780Z,3.28
2023-07-16T13:11:16.491Z,2.90
2023-07-16T13:16:18.342Z,3.20
2023-07-16T13:21:20.147Z,2.97
2023-07-16T13:26:21.850Z,2.80
2023-07-16T13:31:23.488Z,3.30
2023-07-16T13:36:25.083Z,3.00
2023-07-16T13:41:26.689Z,3.30
2023-07-16T13:46:28.293Z,3.67
2023-07-16T13:51:29.777Z,2.92
2023-07-16T13:56:31.450Z,3.20
2023-07-16T14:01:33.077Z,3.13
2023-07-16T14:06:35.132Z,3.10
2023-07-16T14:11:36.617Z,2.55
2023-07-16T14:16:38.172Z,2.92
2023-07-16T14:21:40.196Z,2.60
2023-07-16T14:26:41.832Z,2.80
2023-07-16T14:31:43.329Z,3.33
2023-07-16T14:36:44.806Z,3.03
2023-07-16T14:41:46.669Z,2.45
2023-07-16T14:46:48.295Z,2.67
2023-07-16T14:51:49.886Z,3.40
2023-07-16T14:56:51.348Z,3.25
2023-07-16T15:01:52.885Z,2.60
2023-07-16T15:06:54.414Z,2.50
2023-07-16T15:11:56.058Z,2.92
2023-07-16T15:16:57.763Z,2.60
2023-07-16T15:21:59.323Z,2.97
2023-07-16T15:27:00.819Z,2.50
2023-07-16T15:32:03.340Z,2.55
2023-07-16T15:37:05.188Z,2.85
2023-07-16T15:42:19.277Z,2.92
2023-07-16T15:47:20.854Z,2.88
2023-07-16T15:52:26.424Z,3.10
2023-07-16T15:57:28.528Z,2.80
2023-07-16T16:02:30.012Z,3.03
2023-07-16T16:07:31.560Z,3.03
2023-07-16T16:12:33.379Z,2.85
2023-07-16T16:17:35.211Z,2.75
2023-07-16T16:22:36.961Z,2.63
2023-07-16T16:27:38.683Z,2.88
2023-07-16T16:32:41.225Z,2.85
2023-07-16T16:37:42.921Z,3.65
2023-07-16T16:42:44.886Z,3.70
2023-07-16T16:47:46.390Z,3.70
2023-07-16T16:52:48.028Z,3.28
2023-07-16T16:57:49.600Z,3.20
2023-07-16T17:02:51.203Z,3.30
2023-07-16T17:07:52.823Z,3.17
2023-07-16T17:12:54.894Z,3.95
2023-07-16T17:17:59.908Z,3.28
2023-07-16T17:23:01.971Z,3.15
2023-07-16T17:28:03.726Z,3.38
2023-07-16T17:33:08.744Z,3.58
2023-07-16T17:38:10.587Z,3.45
2023-07-16T17:43:15.474Z,3.05
2023-07-16T17:48:17.907Z,3.17
2023-07-16T17:53:19.688Z,3.22
2023-07-16T17:58:21.541Z,3.33
2023-07-16T18:03:23.213Z,3.13
2023-07-16T18:08:25.130Z,3.08
2023-07-16T18:13:26.688Z,2.72
2023-07-16T18:18:31.901Z,3.35
2023-07-16T18:23:34.450Z,2.65
2023-07-16T18:28:36.587Z,3.15
2023-07-16T18:33:38.464Z,3.30
2023-07-16T18:38:40.453Z,3.17
2023-07-16T18:43:42.986Z,3.35
2023-07-16T18:48:45.146Z,3.33
2023-07-16T19:10:44.760Z,3.33
2023-07-16T19:15:52.985Z,3.50
2023-07-16T19:20:57.616Z,3.83
2023-07-16T19:26:16.583Z,3.38
2023-07-16T19:31:21.964Z,3.67
2023-07-16T19:36:29.129Z,3.30
2023-07-16T19:41:31.743Z,3.22
2023-07-16T19:46:33.641Z,4.10
2023-07-16T19:51:35.371Z,3.85
2023-07-16T19:56:36.948Z,3.72
2023-07-16T20:01:38.823Z,3.35
2023-07-16T20:06:45.654Z,2.78
2023-07-16T20:11:56.796Z,3.15
2023-07-16T20:16:58.520Z,3.25
2023-07-16T20:22:00.290Z,3.80
2023-07-16T20:27:02.361Z,3.80
2023-07-16T20:32:07.538Z,3.20
2023-07-16T20:37:09.408Z,3.40
2023-07-16T20:42:11.645Z,3.35
2023-07-16T20:47:13.183Z,3.58
2023-07-16T20:52:14.779Z,3.33
2023-07-16T20:57:16.502Z,3.35
2023-07-16T21:02:18.947Z,3.35
2023-07-16T21:07:20.606Z,2.92
2023-07-16T21:12:22.348Z,3.20
2023-07-16T21:17:24.874Z,2.72
2023-07-16T21:22:29.665Z,3.03
2023-07-16T21:27:40.694Z,2.83
2023-07-16T21:32:42.419Z,3.10
2023-07-16T21:37:45.028Z,3.28
2023-07-16T21:42:46.602Z,3.38
2023-07-16T21:47:48.307Z,2.75
2023-07-16T21:52:51.939Z,3.30
2023-07-16T21:57:53.795Z,3.38
2023-07-16T22:02:55.863Z,3.25
2023-07-16T22:07:57.597Z,3.17
2023-07-16T22:12:59.583Z,3.60
2023-07-16T22:18:01.997Z,3.40
2023-07-16T22:23:03.737Z,3.20
2023-07-16T22:28:06.758Z,3.53
2023-07-16T22:33:11.361Z,3.00
2023-07-16T22:38:15.673Z,3.70
2023-07-16T22:43:18.203Z,3.80
2023-07-16T22:48:19.876Z,3.83
2023-07-16T22:53:21.920Z,3.40
2023-07-16T22:58:23.615Z,3.38
2023-07-16T23:03:25.437Z,3.38
2023-07-16T23:08:27.050Z,4.35
2023-07-16T23:13:30.007Z,3.42
2023-07-16T23:18:32.080Z,3.83
2023-07-16T23:23:34.125Z,3.53
2023-07-16T23:28:35.891Z,3.70
2023-07-16T23:33:37.519Z,3.70
2023-07-16T23:38:39.118Z,3.80
2023-07-16T23:43:40.821Z,3.70
2023-07-16T23:48:42.287Z,3.55
2023-07-16T23:53:43.909Z,4.10
2023-07-16T23:58:51.505Z,3.47
